Time;durP1;ratioP1;P1;durP2;ratioP2;P2;SDS_P1;SDS_P2;PMS_P1;PMS_P2;Temp;Humidity;BMP_temperature;BMP_pressure;BME280_temperature;BME280_humidity;BME280_pressure;Samples;Min_cycle;Max_cycle;Signal;HPM_P1;HPM_P2
2022/03/29 00:00:38;;;;;;;9.63;9.23;;;;;;;8.74;58.43;93006.97;5049714;28;20245;-78
2022/03/29 00:03:07;;;;;;;10.60;10.00;;;;;;;8.73;58.62;93000.19;5049880;28;20220;-78
2022/03/29 00:05:34;;;;;;;10.03;9.47;;;;;;;8.87;58.60;93003.88;5049614;28;20209;-78
2022/03/29 00:07:59;;;;;;;9.93;9.37;;;;;;;8.89;58.31;92999.16;5049640;28;20212;-77
2022/03/29 00:10:25;;;;;;;10.10;9.57;;;;;;;8.98;58.55;93008.81;5047666;28;20217;-78
2022/03/29 00:12:53;;;;;;;10.23;9.73;;;;;;;8.52;58.95;92951.75;5048200;28;20204;-78
2022/03/29 00:15:22;;;;;;;9.43;8.93;;;;;;;8.75;59.15;93001.50;5048333;28;20234;-78
2022/03/29 00:17:48;;;;;;;9.97;9.57;;;;;;;8.71;59.36;92978.84;5048805;28;20214;-77
2022/03/29 00:20:15;;;;;;;10.00;9.47;;;;;;;8.61;59.52;92973.59;5046178;28;20244;-77
2022/03/29 00:22:41;;;;;;;9.90;9.40;;;;;;;8.75;58.84;92987.69;5048899;28;20265;-78
2022/03/29 00:25:07;;;;;;;9.73;9.23;;;;;;;8.66;59.14;92969.22;5048201;28;20253;-77
2022/03/29 00:27:35;;;;;;;8.93;8.53;;;;;;;8.59;58.75;92947.84;5048210;28;20186;-78
2022/03/29 00:30:01;;;;;;;9.47;9.07;;;;;;;8.81;59.23;92982.25;5040433;28;20238;-78
2022/03/29 00:32:26;;;;;;;9.60;9.20;;;;;;;8.73;60.01;92966.38;5049197;28;20183;-78
2022/03/29 00:34:52;;;;;;;9.17;8.77;;;;;;;8.75;59.70;92979.88;5046194;28;20221;-77
2022/03/29 00:37:17;;;;;;;7.83;7.47;;;;;;;8.68;59.85;92958.53;5047346;28;20218;-77
2022/03/29 00:39:43;;;;;;;10.53;9.83;;;;;;;8.72;60.13;92967.38;5047964;28;20229;-76
2022/03/29 00:42:08;;;;;;;9.67;9.17;;;;;;;8.68;59.87;92945.53;5047766;28;20223;-77
2022/03/29 00:44:36;;;;;;;9.07;8.67;;;;;;;8.82;59.54;92964.81;5047585;28;20250;-76
2022/03/29 00:47:02;;;;;;;9.90;9.30;;;;;;;8.76;59.66;92952.84;5048907;28;20200;-78
2022/03/29 00:49:28;;;;;;;9.47;8.97;;;;;;;8.84;59.39;92960.13;5048271;28;20234;-78
2022/03/29 00:51:58;;;;;;;9.30;8.90;;;;;;;8.77;59.85;92955.19;5046621;28;20182;-78
2022/03/29 00:54:29;;;;;;;9.50;9.07;;;;;;;8.85;59.96;92956.47;5046586;28;20214;-77
2022/03/29 00:57:02;;;;;;;9.63;9.13;;;;;;;8.66;59.69;92942.41;5046810;28;20206;-77
2022/03/29 00:59:31;;;;;;;9.73;9.23;;;;;;;8.64;60.13;92944.50;5047027;28;20245;-78
2022/03/29 01:01:57;;;;;;;10.43;9.83;;;;;;;8.54;60.99;92950.47;5048644;28;20205;-77
2022/03/29 01:04:24;;;;;;;8.63;8.30;;;;;;;8.48;61.47;92938.47;5047754;28;20222;-78
2022/03/29 01:06:50;;;;;;;9.17;8.80;;;;;;;8.31;61.55;92935.31;5048345;28;20224;-78
2022/03/29 01:09:16;;;;;;;9.17;8.77;;;;;;;8.31;61.22;92929.31;5047310;28;20232;-77
2022/03/29 01:11:41;;;;;;;10.17;9.57;;;;;;;8.08;61.85;92913.09;5047597;28;20212;-78
2022/03/29 01:14:07;;;;;;;9.57;8.97;;;;;;;8.28;61.52;92935.03;5046535;28;20217;-78
2022/03/29 01:19:21;;;;;;;9.50;9.10;;;;;;;8.27;61.24;92923.84;5047238;28;20236;-78
2022/03/29 01:21:57;;;;;;;10.40;9.80;;;;;;;8.15;61.54;92924.03;5047564;28;20208;-77
2022/03/29 01:24:23;;;;;;;9.90;9.20;;;;;;;8.25;60.92;92919.94;5048658;28;20222;-77
2022/03/29 01:26:50;;;;;;;10.73;10.13;;;;;;;8.02;61.92;92901.13;5048598;28;20271;-78
2022/03/29 01:29:16;;;;;;;10.00;9.60;;;;;;;8.03;62.20;92907.88;5047979;28;20225;-78
2022/03/29 01:31:42;;;;;;;10.70;9.67;;;;;;;7.73;62.30;92875.81;5046870;28;20213;-78
2022/03/29 01:34:08;;;;;;;8.63;8.23;;;;;;;7.87;62.76;92885.50;5048593;28;20700;-78
2022/03/29 01:36:34;;;;;;;8.17;7.87;;;;;;;7.88;62.53;92884.44;5048064;28;20201;-77
2022/03/29 01:39:00;;;;;;;10.23;9.83;;;;;;;7.80;63.12;92882.34;5047471;28;20217;-77
2022/03/29 01:41:27;;;;;;;10.30;9.73;;;;;;;7.87;62.97;92887.31;5048556;28;20206;-77
2022/03/29 01:43:52;;;;;;;9.77;9.37;;;;;;;7.79;63.16;92878.19;5048275;28;20252;-78
2022/03/29 01:46:18;;;;;;;9.53;9.07;;;;;;;7.73;63.57;92876.59;5048759;28;20190;-77
2022/03/29 01:48:44;;;;;;;10.30;9.77;;;;;;;7.65;63.34;92852.91;5048420;28;20233;-78
2022/03/29 01:51:10;;;;;;;9.97;9.57;;;;;;;7.55;64.28;92864.03;5047483;28;20250;-77
2022/03/29 01:53:36;;;;;;;9.70;9.07;;;;;;;7.57;64.63;92877.56;5047612;28;20225;-77
2022/03/29 01:56:02;;;;;;;9.20;8.70;;;;;;;7.49;64.60;92859.88;5048461;28;20209;-77
2022/03/29 01:58:31;;;;;;;9.70;9.20;;;;;;;7.38;65.21;92867.84;5046588;28;20222;-77
2022/03/29 02:00:58;;;;;;;10.23;9.80;;;;;;;7.33;65.87;92865.25;5047926;28;20194;-78
2022/03/29 02:03:24;;;;;;;8.13;7.73;;;;;;;7.32;65.98;92866.25;5048941;28;20190;-77
2022/03/29 02:05:49;;;;;;;10.17;9.67;;;;;;;7.38;65.91;92857.47;5046512;28;20198;-78
2022/03/29 02:08:16;;;;;;;9.73;9.23;;;;;;;7.20;65.63;92834.53;5049549;28;20186;-77
2022/03/29 02:10:42;;;;;;;9.93;9.30;;;;;;;7.40;65.88;92858.78;5051608;28;20201;-78
2022/03/29 02:13:11;;;;;;;9.97;9.43;;;;;;;7.25;66.01;92843.16;5051160;28;20189;-77
2022/03/29 02:15:39;;;;;;;9.30;8.90;;;;;;;7.05;66.62;92822.25;5050387;28;20186;-77
2022/03/29 02:18:05;;;;;;;9.43;8.77;;;;;;;7.25;66.45;92845.75;5051867;28;20218;-78
2022/03/29 02:20:31;;;;;;;8.37;8.07;;;;;;;7.14;66.51;92825.16;5051652;28;20234;-77
2022/03/29 02:23:06;;;;;;;10.60;9.97;;;;;;;7.06;67.05;92831.59;5051708;28;20174;-77
2022/03/29 02:25:32;;;;;;;9.97;9.47;;;;;;;6.93;67.03;92800.09;5051083;28;20213;-77
2022/03/29 02:27:57;;;;;;;10.23;9.43;;;;;;;7.11;66.93;92833.44;5051059;28;20228;-77
2022/03/29 02:30:23;;;;;;;9.77;9.27;;;;;;;7.18;67.03;92831.41;5050869;28;20225;-78
2022/03/29 02:32:48;;;;;;;11.40;10.23;;;;;;;7.10;66.69;92808.50;5049153;28;20202;-78
2022/03/29 02:35:13;;;;;;;9.17;8.67;;;;;;;7.15;67.09;92822.31;5051131;28;20225;-83
2022/03/29 02:37:40;;;;;;;9.87;9.47;;;;;;;6.98;67.81;92826.88;5049189;28;20182;-78
2022/03/29 02:40:07;;;;;;;10.10;9.53;;;;;;;6.90;68.12;92829.94;5050809;28;20241;-77
2022/03/29 02:42:33;;;;;;;9.37;8.87;;;;;;;6.79;68.66;92827.53;5051604;28;20190;-77
2022/03/29 02:44:58;;;;;;;9.83;9.37;;;;;;;6.82;68.47;92825.22;5051356;28;20225;-78
2022/03/29 02:47:24;;;;;;;10.00;9.43;;;;;;;6.70;68.66;92813.47;5051732;28;20202;-77
2022/03/29 02:49:49;;;;;;;9.37;9.00;;;;;;;6.79;68.27;92817.94;5050849;28;20210;-77
2022/03/29 02:52:15;;;;;;;9.87;9.33;;;;;;;6.82;68.16;92819.28;5051995;28;20194;-77
2022/03/29 02:54:41;;;;;;;10.83;10.03;;;;;;;6.95;67.96;92824.78;5051500;28;20253;-78
2022/03/29 02:57:07;;;;;;;8.90;8.50;;;;;;;6.76;68.58;92828.03;5051052;28;20217;-78
2022/03/29 02:59:32;;;;;;;9.57;9.10;;;;;;;6.81;68.77;92813.28;5050885;28;20225;-79
2022/03/29 03:01:58;;;;;;;10.10;9.60;;;;;;;6.61;68.80;92802.78;5049723;28;20340;-78
2022/03/29 03:04:23;;;;;;;10.70;10.10;;;;;;;6.52;68.76;92786.13;5051299;28;20230;-78
2022/03/29 03:06:48;;;;;;;11.73;9.80;;;;;;;6.79;68.76;92823.13;5050645;28;20188;-77
2022/03/29 03:09:14;;;;;;;9.57;9.03;;;;;;;6.73;68.62;92803.38;5048518;28;20226;-78
2022/03/29 03:11:39;;;;;;;9.63;9.23;;;;;;;6.57;69.31;92807.69;5049842;28;20204;-77
2022/03/29 03:14:05;;;;;;;8.93;8.43;;;;;;;6.65;69.31;92814.22;5049757;28;20222;-78
2022/03/29 03:16:30;;;;;;;11.67;10.57;;;;;;;6.62;69.21;92793.97;5041385;28;20229;-78
2022/03/29 03:18:56;;;;;;;10.13;9.63;;;;;;;6.58;69.41;92819.59;5049835;28;20309;-78
2022/03/29 03:21:21;;;;;;;11.13;10.53;;;;;;;6.27;68.71;92752.25;5051376;28;20182;-78
2022/03/29 03:23:47;;;;;;;9.93;9.37;;;;;;;6.38;69.72;92800.56;5049223;28;20250;-78
2022/03/29 03:26:13;;;;;;;9.73;9.33;;;;;;;6.19;70.62;92781.22;5048798;28;20183;-78
2022/03/29 03:28:38;;;;;;;9.97;9.37;;;;;;;6.38;70.64;92810.91;5049738;28;20229;-78
2022/03/29 03:31:03;;;;;;;11.77;10.87;;;;;;;6.48;70.24;92810.97;5049880;28;20190;-79
2022/03/29 03:33:29;;;;;;;10.70;10.00;;;;;;;6.52;69.66;92805.03;5049027;28;20241;-76
2022/03/29 03:35:54;;;;;;;10.47;9.97;;;;;;;6.37;70.09;92806.75;5045667;28;20190;-79
2022/03/29 03:38:20;;;;;;;10.10;9.67;;;;;;;6.29;71.03;92814.97;5047242;28;20193;-75
2022/03/29 03:40:45;;;;;;;10.50;10.00;;;;;;;6.18;71.87;92810.72;5041178;28;20205;-77
2022/03/29 03:43:11;;;;;;;9.53;8.70;;;;;;;6.23;71.27;92806.38;5049186;28;20644;-77
2022/03/29 03:45:37;;;;;;;10.57;9.53;;;;;;;6.34;70.75;92809.84;5049803;28;20197;-78
2022/03/29 03:48:03;;;;;;;10.40;10.00;;;;;;;6.21;71.17;92810.25;5048351;28;20225;-77
2022/03/29 03:50:28;;;;;;;10.00;9.60;;;;;;;6.20;71.39;92811.28;5047669;28;20234;-77
2022/03/29 03:52:54;;;;;;;9.30;8.90;;;;;;;6.45;70.47;92811.47;5047477;28;20250;-77
2022/03/29 03:55:21;;;;;;;11.00;9.90;;;;;;;6.38;70.33;92811.69;5048352;28;20313;-77
2022/03/29 03:57:48;;;;;;;11.57;10.77;;;;;;;6.26;70.38;92808.47;5048231;28;20198;-78
2022/03/29 04:00:14;;;;;;;9.37;8.97;;;;;;;6.17;70.14;92796.22;5046002;28;20229;-78
2022/03/29 04:02:40;;;;;;;11.37;10.63;;;;;;;6.14;70.30;92794.13;5046915;28;20201;-78
2022/03/29 04:05:13;;;;;;;9.73;9.33;;;;;;;6.24;69.88;92800.16;5046786;28;20233;-78
2022/03/29 04:07:39;;;;;;;9.70;9.30;;;;;;;6.26;70.06;92807.69;5048644;28;20208;-78
2022/03/29 04:10:07;;;;;;;9.77;9.33;;;;;;;6.07;70.31;92783.19;5048206;28;20676;-76
2022/03/29 04:12:32;;;;;;;10.07;9.33;;;;;;;6.20;70.39;92803.50;5048605;28;20186;-74
2022/03/29 04:14:58;;;;;;;10.67;10.03;;;;;;;6.23;70.77;92805.59;5049279;28;20218;-75
2022/03/29 04:17:23;;;;;;;9.50;9.10;;;;;;;6.32;70.12;92807.50;5048488;28;20210;-78
2022/03/29 04:19:48;;;;;;;10.33;9.83;;;;;;;6.22;70.06;92812.59;5046070;28;20325;-76
2022/03/29 04:22:18;;;;;;;9.67;9.20;;;;;;;5.97;70.24;92757.97;5046121;28;20250;-78
2022/03/29 04:24:47;;;;;;;10.43;9.93;;;;;;;6.22;70.11;92780.72;5047615;28;20225;-77
2022/03/29 04:27:12;;;;;;;11.30;10.70;;;;;;;6.37;69.52;92804.16;5048229;28;20273;-76
2022/03/29 04:29:38;;;;;;;9.43;8.93;;;;;;;6.18;70.18;92774.44;5043802;28;20245;-79
2022/03/29 04:32:04;;;;;;;10.60;9.50;;;;;;;6.66;70.68;92802.03;5048785;28;20186;-76
2022/03/29 04:34:29;;;;;;;9.03;8.40;;;;;;;6.45;69.91;92786.34;5049408;28;20229;-78
2022/03/29 04:36:58;;;;;;;9.73;9.33;;;;;;;6.47;69.49;92812.78;5048989;28;20233;-78
2022/03/29 04:39:24;;;;;;;9.53;9.13;;;;;;;6.71;72.41;92800.25;5045746;28;20252;-76
2022/03/29 04:41:50;;;;;;;9.97;9.47;;;;;;;6.63;70.05;92797.34;5047278;28;20182;-77
2022/03/29 04:44:15;;;;;;;11.97;11.20;;;;;;;6.64;70.00;92804.88;5042448;28;20314;-77
2022/03/29 04:46:40;;;;;;;8.73;8.33;;;;;;;6.65;69.75;92803.03;5044440;28;20191;-75
2022/03/29 04:49:06;;;;;;;11.17;10.47;;;;;;;6.63;68.83;92764.38;5046264;28;20229;-76
2022/03/29 04:51:33;;;;;;;9.23;8.83;;;;;;;6.82;68.75;92791.50;5047702;28;20201;-77
2022/03/29 04:53:59;;;;;;;9.93;9.50;;;;;;;6.98;68.47;92795.75;5045705;28;20345;-76
2022/03/29 04:56:24;;;;;;;8.90;8.50;;;;;;;7.16;68.40;92813.47;5045857;28;20207;-77
2022/03/29 04:58:50;;;;;;;10.27;9.67;;;;;;;7.37;67.40;92807.34;5043301;28;20293;-76
2022/03/29 05:01:15;;;;;;;10.13;9.53;;;;;;;7.32;67.23;92796.94;5047188;28;20187;-75
2022/03/29 05:03:41;;;;;;;10.47;10.07;;;;;;;7.49;66.82;92787.13;5046707;28;20218;-76
2022/03/29 05:06:06;;;;;;;10.13;9.50;;;;;;;7.59;66.66;92786.38;5044995;28;20234;-77
2022/03/29 05:08:32;;;;;;;10.40;9.90;;;;;;;7.87;66.31;92804.13;5046377;28;20222;-77
2022/03/29 05:10:57;;;;;;;9.67;9.27;;;;;;;7.96;66.16;92808.56;5046652;28;20196;-76
2022/03/29 05:13:23;;;;;;;10.73;10.03;;;;;;;8.20;65.40;92814.84;5042756;28;20223;-76
2022/03/29 05:15:48;;;;;;;10.13;9.40;;;;;;;8.44;64.65;92796.13;5047055;28;20273;-76
2022/03/29 05:18:14;;;;;;;16.17;10.00;;;;;;;8.63;64.52;92807.59;5045833;28;20252;-77
2022/03/29 05:20:39;;;;;;;9.07;8.67;;;;;;;8.88;63.21;92805.75;5045968;28;20225;-76
2022/03/29 05:23:08;;;;;;;9.03;8.63;;;;;;;8.93;63.40;92787.53;5046913;28;21311;-76
2022/03/29 05:25:35;;;;;;;8.97;8.37;;;;;;;9.07;64.14;92803.38;5045228;28;20194;-77
2022/03/29 05:28:01;;;;;;;8.50;8.10;;;;;;;9.11;63.58;92804.41;5041616;28;20213;-76
2022/03/29 05:30:27;;;;;;;10.30;9.80;;;;;;;9.02;63.49;92787.75;5044567;28;20241;-76
2022/03/29 05:32:57;;;;;;;10.80;9.97;;;;;;;9.36;62.69;92812.16;5047052;28;20178;-78
2022/03/29 05:35:29;;;;;;;9.83;9.13;;;;;;;9.51;61.52;92809.47;5046068;28;20245;-80
2022/03/29 05:37:57;;;;;;;10.03;9.53;;;;;;;9.70;61.08;92806.03;5044686;28;20235;-78
2022/03/29 05:40:24;;;;;;;10.07;9.47;;;;;;;9.86;60.47;92811.94;5048457;28;20281;-78
2022/03/29 05:42:50;;;;;;;11.87;11.10;;;;;;;10.11;57.42;92805.81;5050346;28;20205;-78
2022/03/29 05:45:16;;;;;;;10.63;10.03;;;;;;;10.04;57.33;92798.25;5050350;28;20246;-79
2022/03/29 05:50:27;;;;;;;10.63;10.03;;;;;;;10.49;55.56;92816.25;5049236;28;20294;-80
2022/03/29 05:52:53;;;;;;;11.30;10.70;;;;;;;10.15;55.51;92793.81;5047909;28;20789;-80
2022/03/29 05:55:19;;;;;;;8.97;8.57;;;;;;;10.37;55.17;92818.44;5048496;28;20249;-80
2022/03/29 05:57:44;;;;;;;10.40;9.57;;;;;;;10.48;55.02;92817.31;5049394;28;20190;-80
2022/03/29 06:00:11;;;;;;;10.37;9.87;;;;;;;10.50;54.63;92811.81;5048037;28;20325;-79
2022/03/29 06:02:38;;;;;;;10.50;10.00;;;;;;;10.61;54.95;92808.88;5050985;28;20209;-80
2022/03/29 06:05:04;;;;;;;10.53;9.93;;;;;;;10.63;54.94;92793.69;5051357;28;20232;-80
2022/03/29 06:07:29;;;;;;;9.87;9.37;;;;;;;10.62;54.51;92760.81;5051624;28;20226;-77
2022/03/29 06:09:55;;;;;;;13.70;12.33;;;;;;;10.92;53.81;92778.03;5048438;28;20222;-78
2022/03/29 06:12:21;;;;;;;11.37;10.57;;;;;;;11.11;52.61;92790.13;5049540;28;20190;-79
2022/03/29 06:14:47;;;;;;;11.30;10.53;;;;;;;11.33;52.53;92815.78;5049378;28;20229;-84
2022/03/29 06:17:12;;;;;;;12.00;11.27;;;;;;;11.48;52.36;92807.00;5050092;28;20187;-77
2022/03/29 06:19:37;;;;;;;10.20;9.53;;;;;;;11.54;51.82;92784.97;5044891;28;20242;-78
2022/03/29 06:22:04;;;;;;;11.43;10.73;;;;;;;11.80;50.88;92794.88;5050562;28;20204;-78
2022/03/29 06:24:30;;;;;;;10.33;9.53;;;;;;;11.81;50.85;92779.97;5048749;28;20286;-78
2022/03/29 06:26:55;;;;;;;10.77;10.03;;;;;;;11.97;50.74;92783.94;5051010;28;20178;-78
2022/03/29 06:29:21;;;;;;;11.37;10.67;;;;;;;12.25;49.44;92796.88;5048868;28;20261;-78
2022/03/29 06:31:46;;;;;;;10.60;9.90;;;;;;;12.22;50.15;92791.41;5050106;28;20187;-78
2022/03/29 06:34:13;;;;;;;10.10;9.33;;;;;;;12.11;50.50;92810.97;5050403;28;20241;-78
2022/03/29 06:36:38;;;;;;;11.50;10.80;;;;;;;11.85;51.54;92789.56;5049616;28;20183;-82
2022/03/29 06:39:04;;;;;;;10.57;9.87;;;;;;;12.03;50.98;92809.72;5050518;28;20229;-76
2022/03/29 06:41:30;;;;;;;10.10;9.50;;;;;;;11.87;51.21;92784.06;5050714;28;20197;-79
2022/03/29 06:43:56;;;;;;;10.53;9.77;;;;;;;12.06;51.09;92797.94;5050229;28;20226;-78
2022/03/29 06:46:21;;;;;;;11.43;10.60;;;;;;;11.91;51.15;92775.38;5042590;28;20199;-78
2022/03/29 06:48:47;;;;;;;9.57;9.00;;;;;;;12.11;51.10;92801.25;5048476;28;20225;-78
2022/03/29 06:51:13;;;;;;;10.87;10.27;;;;;;;12.14;50.43;92786.84;5048703;28;20245;-78
2022/03/29 06:53:39;;;;;;;10.43;9.83;;;;;;;12.25;50.88;92802.09;5048610;28;20240;-79
2022/03/29 06:56:08;;;;;;;11.10;10.50;;;;;;;12.26;49.93;92766.25;5051713;28;20194;-79
2022/03/29 06:58:35;;;;;;;10.33;9.70;;;;;;;12.40;49.74;92803.75;5049315;28;20240;-78
2022/03/29 07:01:01;;;;;;;9.80;9.20;;;;;;;12.19;50.27;92777.06;5050830;28;20199;-78
2022/03/29 07:03:27;;;;;;;10.57;9.83;;;;;;;12.32;50.73;92793.91;5050982;28;21695;-79
2022/03/29 07:05:53;;;;;;;9.20;8.73;;;;;;;12.42;50.65;92791.16;5048423;28;20196;-79
2022/03/29 07:08:20;;;;;;;9.10;8.40;;;;;;;12.32;49.92;92781.59;5045936;28;20261;-78
2022/03/29 07:13:31;;;;;;;9.97;9.57;;;;;;;12.55;48.86;92790.41;5049553;28;20251;-78
2022/03/29 07:15:56;;;;;;;10.47;9.67;;;;;;;12.45;49.84;92786.09;5049877;28;20190;-78
2022/03/29 07:18:22;;;;;;;11.13;10.37;;;;;;;12.57;48.73;92799.56;5046958;28;20241;-78
2022/03/29 07:20:47;;;;;;;10.10;9.57;;;;;;;12.47;49.33;92788.44;5050275;28;20202;-78
2022/03/29 07:23:13;;;;;;;10.77;9.97;;;;;;;12.80;49.04;92782.94;5049507;28;20182;-78
2022/03/29 07:25:39;;;;;;;9.60;9.03;;;;;;;12.78;47.21;92747.59;5051464;28;20178;-77
2022/03/29 07:28:04;;;;;;;10.10;9.50;;;;;;;13.13;47.28;92788.97;5049860;28;20197;-78
2022/03/29 07:30:34;;;;;;;11.30;10.57;;;;;;;13.39;47.29;92794.50;5048087;28;20214;-78
2022/03/29 07:32:59;;;;;;;10.70;10.10;;;;;;;13.34;46.16;92763.91;5050675;28;20680;-78
2022/03/29 07:35:28;;;;;;;10.33;9.57;;;;;;;13.58;45.63;92788.13;5050337;28;20250;-78
2022/03/29 07:37:55;;;;;;;10.60;9.67;;;;;;;13.30;45.98;92789.16;5049477;28;20182;-78
2022/03/29 07:40:24;;;;;;;9.93;9.33;;;;;;;13.37;45.61;92789.56;5049322;28;20325;-77
2022/03/29 07:42:50;;;;;;;10.00;9.40;;;;;;;13.29;45.63;92779.72;5049721;28;20182;-78
2022/03/29 07:45:17;;;;;;;8.90;8.40;;;;;;;13.41;45.24;92795.78;5047552;28;20221;-79
2022/03/29 07:47:43;;;;;;;10.73;10.13;;;;;;;12.87;46.89;92775.47;5049614;28;20185;-79
2022/03/29 07:50:11;;;;;;;10.23;9.40;;;;;;;13.28;46.10;92787.88;5048780;28;20234;-78
2022/03/29 07:52:39;;;;;;;11.10;10.13;;;;;;;13.58;44.78;92795.97;5047671;28;20190;-77
2022/03/29 07:55:09;;;;;;;10.30;9.17;;;;;;;13.44;44.64;92761.09;5050377;28;20229;-77
2022/03/29 07:57:36;;;;;;;9.93;9.37;;;;;;;13.51;45.01;92766.72;5050516;28;20241;-77
2022/03/29 08:02:50;;;;;;;11.40;10.60;;;;;;;13.41;44.89;92761.69;5050412;28;20193;-77
2022/03/29 08:05:16;;;;;;;9.57;9.07;;;;;;;13.11;47.57;92758.84;5048438;28;20696;-75
2022/03/29 08:07:41;;;;;;;10.47;9.90;;;;;;;13.44;46.12;92749.84;5048984;28;20313;-76
2022/03/29 08:10:08;;;;;;;10.57;9.87;;;;;;;13.69;45.71;92757.19;5049704;28;20252;-77
2022/03/29 08:12:34;;;;;;;9.60;9.07;;;;;;;13.83;44.45;92758.75;5049646;28;20209;-77
2022/03/29 08:15:00;;;;;;;11.20;10.43;;;;;;;14.01;43.94;92778.84;5049465;28;20218;-77
2022/03/29 08:17:26;;;;;;;9.77;9.20;;;;;;;13.78;44.92;92774.59;5050191;28;20237;-78
2022/03/29 08:19:52;;;;;;;10.37;9.87;;;;;;;13.93;43.75;92740.16;5048297;28;20248;-78
2022/03/29 08:22:17;;;;;;;8.97;8.37;;;;;;;13.95;43.05;92753.75;5044879;28;20194;-77
2022/03/29 08:24:43;;;;;;;9.77;9.27;;;;;;;13.88;43.28;92768.38;5049147;28;20222;-77
2022/03/29 08:27:09;;;;;;;9.27;8.67;;;;;;;14.14;43.70;92764.91;5049476;28;20213;-78
2022/03/29 08:29:35;;;;;;;10.27;9.50;;;;;;;14.43;42.18;92751.41;5048542;28;20218;-77
2022/03/29 08:32:00;;;;;;;9.47;8.87;;;;;;;14.06;42.54;92725.44;5049951;28;20221;-78
2022/03/29 08:34:26;;;;;;;10.50;9.80;;;;;;;14.55;42.23;92756.13;5045167;28;20225;-77
2022/03/29 08:36:52;;;;;;;8.83;8.37;;;;;;;14.44;42.19;92716.19;5048738;28;20190;-78
2022/03/29 08:39:18;;;;;;;9.93;9.27;;;;;;;14.64;41.38;92749.09;5048284;28;20226;-77
2022/03/29 08:41:52;;;;;;;9.67;9.07;;;;;;;14.57;40.90;92738.22;5049425;28;20189;-77
2022/03/29 08:44:17;;;;;;;8.30;7.90;;;;;;;14.26;41.62;92738.13;5048271;28;20225;-76
2022/03/29 08:46:46;;;;;;;9.00;8.50;;;;;;;14.34;42.92;92735.59;5048189;28;20254;-78
2022/03/29 08:49:13;;;;;;;11.13;10.43;;;;;;;14.59;42.15;92738.69;5048333;28;20229;-77
2022/03/29 08:51:39;;;;;;;9.20;8.73;;;;;;;14.63;40.49;92708.13;5048729;28;20544;-77
2022/03/29 08:54:05;;;;;;;8.77;8.27;;;;;;;14.61;40.39;92732.06;5046818;28;20244;-77
2022/03/29 08:56:31;;;;;;;9.33;8.73;;;;;;;14.44;40.53;92716.19;5048067;28;20213;-77
2022/03/29 08:58:57;;;;;;;9.93;9.43;;;;;;;14.13;42.74;92704.81;5048634;28;20213;-78
2022/03/29 09:01:23;;;;;;;9.13;8.43;;;;;;;14.77;41.51;92703.56;5048094;28;20198;-78
2022/03/29 09:04:15;;;;;;;10.57;9.90;;;;;;;14.74;41.10;92712.81;5047688;28;20313;-78
2022/03/29 09:07:02;;;;;;;9.20;8.60;;;;;;;14.90;40.37;92705.31;5050259;28;20201;-78
2022/03/29 09:09:40;;;;;;;8.97;8.37;;;;;;;14.82;39.46;92695.56;5048161;28;20283;-77
2022/03/29 09:12:13;;;;;;;10.00;9.40;;;;;;;14.80;39.14;92677.44;5049368;28;20190;-78
2022/03/29 09:14:54;;;;;;;9.37;8.43;;;;;;;15.10;39.28;92702.16;5047692;28;20226;-76
2022/03/29 09:17:35;;;;;;;9.43;8.93;;;;;;;15.01;39.40;92690.84;5048888;28;20196;-75
2022/03/29 09:20:10;;;;;;;10.43;9.80;;;;;;;15.22;39.84;92683.97;5045264;28;20214;-81
2022/03/29 09:22:35;;;;;;;10.50;9.80;;;;;;;15.26;38.35;92684.91;5042093;28;20257;-78
2022/03/29 09:25:01;;;;;;;9.67;9.07;;;;;;;15.26;37.99;92682.28;5041775;28;20249;-77
2022/03/29 09:27:26;;;;;;;9.83;9.33;;;;;;;14.81;39.40;92654.56;5047709;28;20260;-77
2022/03/29 09:30:06;;;;;;;10.20;9.43;;;;;;;14.95;37.95;92634.22;5045213;28;20225;-76
2022/03/29 09:32:32;;;;;;;9.77;9.17;;;;;;;15.11;38.79;92656.41;5047726;28;20212;-76
2022/03/29 09:35:05;;;;;;;11.00;10.30;;;;;;;15.41;38.80;92676.66;5044798;28;20284;-76
2022/03/29 09:37:35;;;;;;;11.13;10.40;;;;;;;15.62;37.73;92674.97;5042481;28;20194;-76
2022/03/29 09:40:00;;;;;;;10.03;9.53;;;;;;;15.77;37.23;92664.78;5041843;28;20233;-76
2022/03/29 09:42:27;;;;;;;12.53;11.73;;;;;;;15.87;36.61;92658.44;5040860;28;20222;-76
2022/03/29 09:44:54;;;;;;;12.27;11.47;;;;;;;15.75;37.13;92634.59;5039282;28;20221;-76
2022/03/29 09:47:21;;;;;;;11.40;10.67;;;;;;;15.94;36.89;92664.00;5039130;28;20253;-76
2022/03/29 09:50:08;;;;;;;10.20;9.70;;;;;;;15.70;36.93;92653.16;5040538;28;20228;-76
2022/03/29 09:52:44;;;;;;;11.50;10.73;;;;;;;15.62;37.32;92657.34;5039845;28;20266;-76
2022/03/29 09:55:18;;;;;;;12.03;10.97;;;;;;;15.61;36.26;92649.75;5037486;28;20225;-76
2022/03/29 09:57:57;;;;;;;11.53;10.77;;;;;;;15.66;36.80;92641.69;5039921;28;20207;-76
2022/03/29 10:00:29;;;;;;;10.47;9.77;;;;;;;15.50;36.64;92645.88;5038489;28;20264;-76
2022/03/29 10:02:55;;;;;;;11.40;10.70;;;;;;;15.39;37.25;92641.97;5043788;28;20187;-76
2022/03/29 10:05:22;;;;;;;9.23;8.73;;;;;;;15.42;36.46;92625.56;5036808;28;20259;-76
2022/03/29 10:10:50;;;;;;;8.23;7.90;;;;;;;15.62;34.83;92624.97;5047203;28;20224;-76
2022/03/29 10:13:17;;;;;;;8.47;7.97;;;;;;;15.79;35.11;92617.09;5040428;28;20237;-76
2022/03/29 10:15:45;;;;;;;10.07;9.13;;;;;;;15.80;34.91;92602.84;5048287;28;20191;-75
2022/03/29 10:18:11;;;;;;;8.80;8.30;;;;;;;15.82;37.33;92624.38;5047930;28;20323;-75
2022/03/29 10:20:37;;;;;;;9.80;8.93;;;;;;;16.12;34.43;92615.53;5046593;28;20214;-76
2022/03/29 10:23:05;;;;;;;9.23;8.47;;;;;;;16.02;34.71;92597.41;5048507;28;20220;-76
2022/03/29 10:25:32;;;;;;;8.50;8.10;;;;;;;16.23;36.02;92600.19;5047841;28;20245;-76
2022/03/29 10:27:59;;;;;;;8.57;8.17;;;;;;;16.12;36.11;92597.09;5050561;28;20229;-76
2022/03/29 10:30:37;;;;;;;8.33;7.93;;;;;;;15.34;37.18;92607.88;5049972;28;20325;-76
2022/03/29 10:33:18;;;;;;;9.53;8.63;;;;;;;14.80;38.02;92608.34;5050566;28;20201;-76
2022/03/29 10:36:11;;;;;;;8.67;8.17;;;;;;;14.87;38.25;92588.44;5049319;28;20214;-77
2022/03/29 10:38:46;;;;;;;9.73;9.13;;;;;;;15.40;37.15;92591.69;5048717;28;20242;-76
2022/03/29 10:41:26;;;;;;;8.33;7.93;;;;;;;15.92;37.28;92600.38;5051063;28;20216;-75
2022/03/29 10:44:04;;;;;;;9.33;8.70;;;;;;;16.50;36.65;92595.34;5051627;28;20236;-75
2022/03/29 10:46:44;;;;;;;9.10;8.67;;;;;;;16.32;34.75;92591.19;5048866;28;20194;-76
2022/03/29 10:49:39;;;;;;;7.50;7.20;;;;;;;16.08;34.41;92585.63;5050526;28;20248;-76
2022/03/29 10:52:04;;;;;;;8.83;8.43;;;;;;;15.80;34.69;92585.19;5049653;28;20205;-76
2022/03/29 10:54:40;;;;;;;7.60;7.30;;;;;;;16.13;34.98;92574.94;5051202;28;20320;-76
2022/03/29 10:57:26;;;;;;;8.27;7.87;;;;;;;16.31;34.66;92584.34;5049550;28;20663;-76
2022/03/29 11:00:17;;;;;;;9.10;8.70;;;;;;;16.37;34.01;92582.31;5050035;28;20309;-76
2022/03/29 11:03:09;;;;;;;9.10;8.60;;;;;;;16.49;33.78;92566.66;5049689;28;20246;-75
2022/03/29 11:06:04;;;;;;;9.00;8.40;;;;;;;16.45;32.06;92574.41;5049312;28;20273;-76
2022/03/29 11:08:30;;;;;;;8.40;8.10;;;;;;;16.09;33.35;92540.53;5050593;28;20230;-76
2022/03/29 11:10:58;;;;;;;8.17;7.77;;;;;;;16.54;34.25;92562.00;5049657;28;20220;-76
2022/03/29 11:13:26;;;;;;;8.93;8.53;;;;;;;16.31;34.28;92549.34;5049641;28;20216;-76
2022/03/29 11:15:52;;;;;;;8.63;8.17;;;;;;;16.29;33.65;92559.41;5050535;28;20216;-77
2022/03/29 11:18:30;;;;;;;8.33;7.83;;;;;;;16.75;33.23;92547.03;5050425;28;20253;-77
2022/03/29 11:21:02;;;;;;;8.13;7.73;;;;;;;16.51;33.49;92540.78;5050161;28;20233;-77
2022/03/29 11:23:36;;;;;;;8.13;7.63;;;;;;;16.93;34.44;92543.22;5050526;28;20268;-77
2022/03/29 11:26:13;;;;;;;8.57;7.80;;;;;;;16.45;34.48;92548.06;5051068;28;20224;-77
2022/03/29 11:28:53;;;;;;;9.30;8.70;;;;;;;16.25;35.25;92547.97;5041534;28;20225;-77
2022/03/29 11:31:21;;;;;;;8.87;8.37;;;;;;;15.80;36.45;92532.53;5050799;28;20185;-76
2022/03/29 11:33:52;;;;;;;8.43;7.93;;;;;;;16.14;36.08;92536.22;5048878;28;20932;-78
2022/03/29 11:36:19;;;;;;;9.13;8.40;;;;;;;16.20;35.23;92533.09;5048036;28;20182;-76
2022/03/29 11:38:45;;;;;;;8.33;7.93;;;;;;;15.87;35.72;92530.22;5047711;28;20298;-77
2022/03/29 11:41:30;;;;;;;8.60;8.20;;;;;;;16.00;35.88;92523.19;5050511;28;20190;-75
2022/03/29 11:44:06;;;;;;;8.50;8.07;;;;;;;16.32;35.93;92514.75;5047364;28;20214;-80
2022/03/29 11:46:53;;;;;;;9.87;9.17;;;;;;;15.81;35.82;92501.72;5048188;28;20245;-77
2022/03/29 11:49:20;;;;;;;9.17;8.67;;;;;;;16.03;35.41;92510.19;5049810;28;20276;-77